sensor_id;sensor_type;location;lat;lon;timestamp;pressure;altitude;pressure_sealevel;temperature;humidity
43683;BME280;29285;52.128;21.060;2023-02-18T00:02:24;99263.70;;;7.95;100.00
43683;BME280;29285;52.128;21.060;2023-02-18T00:07:26;99269.23;;;7.87;100.00
43683;BME280;29285;52.128;21.060;2023-02-18T00:12:27;99265.34;;;7.75;100.00
43683;BME280;29285;52.128;21.060;2023-02-18T00:17:28;99279.94;;;7.62;100.00
43683;BME280;29285;52.128;21.060;2023-02-18T00:22:29;99284.52;;;7.50;100.00
43683;BME280;29285;52.128;21.060;2023-02-18T00:27:30;99291.32;;;7.37;100.00
43683;BME280;29285;52.128;21.060;2023-02-18T00:32:33;99292.88;;;7.27;100.00
43683;BME280;29285;52.128;21.060;2023-02-18T00:37:34;99305.24;;;7.21;100.00
43683;BME280;29285;52.128;21.060;2023-02-18T00:42:35;99306.59;;;7.14;100.00
43683;BME280;29285;52.128;21.060;2023-02-18T00:47:36;99312.84;;;7.11;100.00
43683;BME280;29285;52.128;21.060;2023-02-18T00:52:37;99308.54;;;7.11;100.00
43683;BME280;29285;52.128;21.060;2023-02-18T00:57:38;99313.73;;;7.09;100.00
43683;BME280;29285;52.128;21.060;2023-02-18T01:02:39;99308.83;;;7.04;100.00
43683;BME280;29285;52.128;21.060;2023-02-18T01:07:40;99308.54;;;7.01;100.00
43683;BME280;29285;52.128;21.060;2023-02-18T01:12:41;99317.37;;;6.98;100.00
43683;BME280;29285;52.128;21.060;2023-02-18T01:17:42;99322.44;;;6.95;100.00
43683;BME280;29285;52.128;21.060;2023-02-18T01:22:43;99313.69;;;6.92;100.00
43683;BME280;29285;52.128;21.060;2023-02-18T01:27:44;99314.93;;;6.90;100.00
43683;BME280;29285;52.128;21.060;2023-02-18T01:32:45;99327.21;;;6.87;100.00
43683;BME280;29285;52.128;21.060;2023-02-18T01:37:46;99313.47;;;6.85;100.00
43683;BME280;29285;52.128;21.060;2023-02-18T01:42:47;99319.34;;;6.85;100.00
43683;BME280;29285;52.128;21.060;2023-02-18T01:47:48;99310.55;;;6.83;100.00
43683;BME280;29285;52.128;21.060;2023-02-18T01:52:49;99311.45;;;6.82;100.00
43683;BME280;29285;52.128;21.060;2023-02-18T01:57:50;99304.08;;;6.80;100.00
43683;BME280;29285;52.128;21.060;2023-02-18T02:02:51;99294.66;;;6.76;100.00
43683;BME280;29285;52.128;21.060;2023-02-18T02:07:52;99288.66;;;6.72;100.00
43683;BME280;29285;52.128;21.060;2023-02-18T02:45:03;99293.14;;;6.53;100.00
43683;BME280;29285;52.128;21.060;2023-02-18T02:55:08;99303.29;;;6.43;100.00
43683;BME280;29285;52.128;21.060;2023-02-18T03:00:09;99308.70;;;6.38;100.00
43683;BME280;29285;52.128;21.060;2023-02-18T03:20:50;99328.22;;;6.23;100.00
43683;BME280;29285;52.128;21.060;2023-02-18T03:25:54;99324.83;;;6.18;100.00
43683;BME280;29285;52.128;21.060;2023-02-18T03:31:01;99332.48;;;6.13;100.00
43683;BME280;29285;52.128;21.060;2023-02-18T03:36:04;99339.94;;;6.08;100.00
43683;BME280;29285;52.128;21.060;2023-02-18T03:41:05;99332.09;;;6.03;100.00
43683;BME280;29285;52.128;21.060;2023-02-18T03:46:06;99345.20;;;5.99;100.00
43683;BME280;29285;52.128;21.060;2023-02-18T03:51:07;99354.37;;;5.96;100.00
43683;BME280;29285;52.128;21.060;2023-02-18T03:56:08;99363.35;;;5.94;100.00
43683;BME280;29285;52.128;21.060;2023-02-18T04:01:09;99351.70;;;5.90;100.00
43683;BME280;29285;52.128;21.060;2023-02-18T04:06:10;99362.44;;;5.84;100.00
43683;BME280;29285;52.128;21.060;2023-02-18T04:11:11;99357.33;;;5.80;100.00
43683;BME280;29285;52.128;21.060;2023-02-18T04:16:12;99374.05;;;5.77;100.00
43683;BME280;29285;52.128;21.060;2023-02-18T04:21:14;99367.55;;;5.74;100.00
43683;BME280;29285;52.128;21.060;2023-02-18T04:26:15;99365.88;;;5.69;100.00
43683;BME280;29285;52.128;21.060;2023-02-18T04:31:16;99371.58;;;5.66;100.00
43683;BME280;29285;52.128;21.060;2023-02-18T04:36:17;99371.25;;;5.66;100.00
43683;BME280;29285;52.128;21.060;2023-02-18T04:41:17;99381.42;;;5.64;100.00
43683;BME280;29285;52.128;21.060;2023-02-18T04:46:18;99382.48;;;5.61;100.00
43683;BME280;29285;52.128;21.060;2023-02-18T04:51:19;99372.53;;;5.59;100.00
43683;BME280;29285;52.128;21.060;2023-02-18T04:56:20;99377.03;;;5.56;100.00
43683;BME280;29285;52.128;21.060;2023-02-18T05:01:22;99377.27;;;5.53;100.00
43683;BME280;29285;52.128;21.060;2023-02-18T05:06:23;99374.54;;;5.48;100.00
43683;BME280;29285;52.128;21.060;2023-02-18T05:11:24;99371.65;;;5.45;100.00
43683;BME280;29285;52.128;21.060;2023-02-18T05:16:25;99378.73;;;5.42;100.00
43683;BME280;29285;52.128;21.060;2023-02-18T05:21:25;99401.44;;;5.42;100.00
43683;BME280;29285;52.128;21.060;2023-02-18T05:26:26;99400.24;;;5.41;100.00
43683;BME280;29285;52.128;21.060;2023-02-18T05:31:27;99398.88;;;5.41;100.00
43683;BME280;29285;52.128;21.060;2023-02-18T05:36:28;99405.91;;;5.43;100.00
43683;BME280;29285;52.128;21.060;2023-02-18T05:41:30;99411.25;;;5.42;100.00
43683;BME280;29285;52.128;21.060;2023-02-18T05:46:31;99415.20;;;5.42;100.00
43683;BME280;29285;52.128;21.060;2023-02-18T05:51:32;99418.67;;;5.39;100.00
43683;BME280;29285;52.128;21.060;2023-02-18T05:56:33;99425.38;;;5.39;100.00
43683;BME280;29285;52.128;21.060;2023-02-18T06:01:34;99420.39;;;5.39;100.00
43683;BME280;29285;52.128;21.060;2023-02-18T06:06:35;99432.59;;;5.41;100.00
43683;BME280;29285;52.128;21.060;2023-02-18T06:11:36;99442.21;;;5.42;100.00
43683;BME280;29285;52.128;21.060;2023-02-18T06:16:37;99450.63;;;5.43;100.00
43683;BME280;29285;52.128;21.060;2023-02-18T06:21:39;99468.87;;;5.43;100.00
43683;BME280;29285;52.128;21.060;2023-02-18T06:26:40;99476.80;;;5.41;100.00
43683;BME280;29285;52.128;21.060;2023-02-18T06:31:41;99476.10;;;5.42;100.00
43683;BME280;29285;52.128;21.060;2023-02-18T06:36:42;99486.94;;;5.43;100.00
43683;BME280;29285;52.128;21.060;2023-02-18T06:41:43;99481.95;;;5.44;100.00
43683;BME280;29285;52.128;21.060;2023-02-18T06:46:44;99486.77;;;5.43;100.00
43683;BME280;29285;52.128;21.060;2023-02-18T06:51:45;99486.42;;;5.42;100.00
43683;BME280;29285;52.128;21.060;2023-02-18T06:56:47;99492.80;;;5.42;100.00
43683;BME280;29285;52.128;21.060;2023-02-18T07:01:48;99489.15;;;5.45;100.00
43683;BME280;29285;52.128;21.060;2023-02-18T07:06:49;99507.71;;;5.48;100.00
43683;BME280;29285;52.128;21.060;2023-02-18T07:11:50;99509.73;;;5.51;100.00
43683;BME280;29285;52.128;21.060;2023-02-18T07:16:51;99507.33;;;5.52;100.00
43683;BME280;29285;52.128;21.060;2023-02-18T07:21:52;99514.40;;;5.51;100.00
43683;BME280;29285;52.128;21.060;2023-02-18T07:26:57;99514.05;;;5.51;100.00
43683;BME280;29285;52.128;21.060;2023-02-18T07:31:58;99500.47;;;5.50;100.00
43683;BME280;29285;52.128;21.060;2023-02-18T07:36:59;99493.75;;;5.51;100.00
43683;BME280;29285;52.128;21.060;2023-02-18T07:42:03;99500.79;;;5.53;100.00
43683;BME280;29285;52.128;21.060;2023-02-18T07:47:05;99487.11;;;5.62;100.00
43683;BME280;29285;52.128;21.060;2023-02-18T07:52:06;99485.85;;;5.66;100.00
43683;BME280;29285;52.128;21.060;2023-02-18T07:57:07;99495.81;;;5.71;100.00
43683;BME280;29285;52.128;21.060;2023-02-18T08:02:11;99507.30;;;5.76;100.00
43683;BME280;29285;52.128;21.060;2023-02-18T08:07:15;99499.89;;;5.76;100.00
43683;BME280;29285;52.128;21.060;2023-02-18T08:12:17;99522.36;;;5.83;100.00
43683;BME280;29285;52.128;21.060;2023-02-18T08:17:17;99534.23;;;5.84;100.00
43683;BME280;29285;52.128;21.060;2023-02-18T08:22:18;99531.65;;;5.85;100.00
43683;BME280;29285;52.128;21.060;2023-02-18T08:27:20;99529.54;;;5.90;100.00
43683;BME280;29285;52.128;21.060;2023-02-18T08:32:21;99515.52;;;5.97;100.00
43683;BME280;29285;52.128;21.060;2023-02-18T08:37:22;99526.52;;;5.99;100.00
43683;BME280;29285;52.128;21.060;2023-02-18T08:42:23;99521.10;;;6.10;100.00
43683;BME280;29285;52.128;21.060;2023-02-18T08:47:24;99520.99;;;6.20;100.00
43683;BME280;29285;52.128;21.060;2023-02-18T08:52:26;99524.38;;;6.25;100.00
43683;BME280;29285;52.128;21.060;2023-02-18T08:57:27;99536.20;;;6.32;100.00
43683;BME280;29285;52.128;21.060;2023-02-18T09:02:28;99539.13;;;6.32;100.00
43683;BME280;29285;52.128;21.060;2023-02-18T09:07:29;99544.62;;;6.34;100.00
43683;BME280;29285;52.128;21.060;2023-02-18T09:12:30;99550.19;;;6.29;100.00
43683;BME280;29285;52.128;21.060;2023-02-18T09:17:31;99559.17;;;6.26;100.00
43683;BME280;29285;52.128;21.060;2023-02-18T09:22:33;99556.09;;;6.25;100.00
43683;BME280;29285;52.128;21.060;2023-02-18T09:27:34;99566.10;;;6.22;100.00
43683;BME280;29285;52.128;21.060;2023-02-18T09:32:35;99572.24;;;6.27;100.00
43683;BME280;29285;52.128;21.060;2023-02-18T09:37:36;99582.33;;;6.34;100.00
43683;BME280;29285;52.128;21.060;2023-02-18T09:42:38;99578.00;;;6.38;100.00
43683;BME280;29285;52.128;21.060;2023-02-18T09:47:40;99579.38;;;6.37;100.00
43683;BME280;29285;52.128;21.060;2023-02-18T09:52:41;99585.78;;;6.34;100.00
43683;BME280;29285;52.128;21.060;2023-02-18T09:57:48;99585.13;;;6.31;100.00
43683;BME280;29285;52.128;21.060;2023-02-18T10:03:00;99588.27;;;6.28;100.00
43683;BME280;29285;52.128;21.060;2023-02-18T10:08:03;99600.16;;;6.28;100.00
43683;BME280;29285;52.128;21.060;2023-02-18T10:13:10;99594.82;;;6.27;100.00
43683;BME280;29285;52.128;21.060;2023-02-18T10:23:33;99596.02;;;6.26;100.00
43683;BME280;29285;52.128;21.060;2023-02-18T10:28:35;99593.45;;;6.26;100.00
43683;BME280;29285;52.128;21.060;2023-02-18T10:33:42;99588.11;;;6.27;100.00
43683;BME280;29285;52.128;21.060;2023-02-18T10:38:58;99579.98;;;6.28;100.00
43683;BME280;29285;52.128;21.060;2023-02-18T10:44:14;99575.11;;;6.33;100.00
43683;BME280;29285;52.128;21.060;2023-02-18T10:54:26;99582.10;;;6.40;100.00
43683;BME280;29285;52.128;21.060;2023-02-18T10:59:32;99556.82;;;6.38;100.00
43683;BME280;29285;52.128;21.060;2023-02-18T11:04:35;99562.44;;;6.42;100.00
43683;BME280;29285;52.128;21.060;2023-02-18T11:14:42;99564.70;;;6.40;100.00
43683;BME280;29285;52.128;21.060;2023-02-18T11:19:47;99545.59;;;6.40;100.00
43683;BME280;29285;52.128;21.060;2023-02-18T11:24:55;99550.93;;;6.39;100.00
43683;BME280;29285;52.128;21.060;2023-02-18T11:30:02;99541.65;;;6.36;100.00
43683;BME280;29285;52.128;21.060;2023-02-18T11:35:03;99541.33;;;6.36;100.00
43683;BME280;29285;52.128;21.060;2023-02-18T11:40:05;99541.47;;;6.38;100.00
43683;BME280;29285;52.128;21.060;2023-02-18T11:45:11;99541.12;;;6.39;100.00
43683;BME280;29285;52.128;21.060;2023-02-18T11:50:29;99532.46;;;6.42;100.00
43683;BME280;29285;52.128;21.060;2023-02-18T11:55:31;99548.47;;;6.44;100.00
43683;BME280;29285;52.128;21.060;2023-02-18T12:00:36;99537.80;;;6.43;100.00
43683;BME280;29285;52.128;21.060;2023-02-18T12:05:39;99547.64;;;6.56;100.00
43683;BME280;29285;52.128;21.060;2023-02-18T12:10:41;99525.94;;;6.54;100.00
43683;BME280;29285;52.128;21.060;2023-02-18T12:15:51;99524.38;;;6.55;100.00
43683;BME280;29285;52.128;21.060;2023-02-18T12:21:08;99525.38;;;6.58;100.00
43683;BME280;29285;52.128;21.060;2023-02-18T12:26:23;99518.76;;;6.63;100.00
43683;BME280;29285;52.128;21.060;2023-02-18T13:02:06;99487.84;;;6.68;100.00
43683;BME280;29285;52.128;21.060;2023-02-18T13:17:48;99474.27;;;6.90;100.00
43683;BME280;29285;52.128;21.060;2023-02-18T13:22:50;99470.19;;;6.85;99.72
43683;BME280;29285;52.128;21.060;2023-02-18T13:27:58;99466.36;;;6.76;99.26
43683;BME280;29285;52.128;21.060;2023-02-18T13:33:18;99461.84;;;6.66;98.95
43683;BME280;29285;52.128;21.060;2023-02-18T13:43:42;99472.10;;;6.60;98.61
43683;BME280;29285;52.128;21.060;2023-02-18T13:59:18;99468.83;;;6.60;98.56
43683;BME280;29285;52.128;21.060;2023-02-18T14:09:41;99461.34;;;6.53;98.44
43683;BME280;29285;52.128;21.060;2023-02-18T14:14:42;99461.02;;;6.50;98.26
43683;BME280;29285;52.128;21.060;2023-02-18T14:20:45;99449.64;;;6.50;98.20
43683;BME280;29285;52.128;21.060;2023-02-18T14:25:16;99445.52;;;6.50;98.33
43683;BME280;29285;52.128;21.060;2023-02-18T14:35:26;99434.88;;;6.45;98.37
43683;BME280;29285;52.128;21.060;2023-02-18T14:50:53;99410.02;;;6.50;98.70
43683;BME280;29285;52.128;21.060;2023-02-18T14:56:01;99406.02;;;6.52;98.83
43683;BME280;29285;52.128;21.060;2023-02-18T15:11:26;99427.64;;;6.34;98.59
43683;BME280;29285;52.128;21.060;2023-02-18T15:16:31;99433.91;;;6.13;98.17
43683;BME280;29285;52.128;21.060;2023-02-18T15:21:38;99441.38;;;5.91;97.96
43683;BME280;29285;52.128;21.060;2023-02-18T15:26:44;99448.65;;;5.71;97.69
43683;BME280;29285;52.128;21.060;2023-02-18T15:31:46;99461.09;;;5.47;97.65
43683;BME280;29285;52.128;21.060;2023-02-18T15:36:49;99461.97;;;5.25;97.71
43683;BME280;29285;52.128;21.060;2023-02-18T15:41:56;99448.35;;;5.06;97.84
43683;BME280;29285;52.128;21.060;2023-02-18T15:47:03;99449.45;;;4.98;98.48
43683;BME280;29285;52.128;21.060;2023-02-18T15:52:04;99445.38;;;4.91;98.65
43683;BME280;29285;52.128;21.060;2023-02-18T15:57:09;99438.33;;;4.90;99.33
43683;BME280;29285;52.128;21.060;2023-02-18T16:02:19;99436.44;;;4.89;99.69
43683;BME280;29285;52.128;21.060;2023-02-18T16:07:22;99438.15;;;4.90;100.00
43683;BME280;29285;52.128;21.060;2023-02-18T16:12:28;99431.63;;;4.91;100.00
43683;BME280;29285;52.128;21.060;2023-02-18T16:17:30;99424.55;;;4.95;100.00
43683;BME280;29285;52.128;21.060;2023-02-18T16:27:35;99426.41;;;4.98;100.00
43683;BME280;29285;52.128;21.060;2023-02-18T16:32:37;99428.96;;;5.01;100.00
43683;BME280;29285;52.128;21.060;2023-02-18T16:37:38;99428.24;;;5.05;100.00
43683;BME280;29285;52.128;21.060;2023-02-18T16:42:39;99426.90;;;5.02;100.00
43683;BME280;29285;52.128;21.060;2023-02-18T16:47:40;99434.45;;;5.03;100.00
43683;BME280;29285;52.128;21.060;2023-02-18T16:52:42;99429.79;;;5.06;100.00
43683;BME280;29285;52.128;21.060;2023-02-18T16:57:43;99431.51;;;5.06;100.00
43683;BME280;29285;52.128;21.060;2023-02-18T17:02:45;99433.05;;;5.07;100.00
43683;BME280;29285;52.128;21.060;2023-02-18T17:07:46;99427.23;;;5.04;100.00
43683;BME280;29285;52.128;21.060;2023-02-18T17:12:48;99425.52;;;5.01;100.00
43683;BME280;29285;52.128;21.060;2023-02-18T17:17:49;99426.05;;;5.00;100.00
43683;BME280;29285;52.128;21.060;2023-02-18T17:22:50;99422.11;;;4.98;100.00
43683;BME280;29285;52.128;21.060;2023-02-18T17:27:51;99412.48;;;5.00;100.00
43683;BME280;29285;52.128;21.060;2023-02-18T17:32:52;99422.39;;;5.07;100.00
43683;BME280;29285;52.128;21.060;2023-02-18T17:37:53;99424.26;;;5.10;100.00
43683;BME280;29285;52.128;21.060;2023-02-18T17:42:54;99430.38;;;5.18;100.00
43683;BME280;29285;52.128;21.060;2023-02-18T17:47:55;99439.89;;;5.11;100.00
43683;BME280;29285;52.128;21.060;2023-02-18T17:52:56;99430.39;;;4.93;100.00
43683;BME280;29285;52.128;21.060;2023-02-18T17:57:57;99430.16;;;4.78;100.00
43683;BME280;29285;52.128;21.060;2023-02-18T18:02:58;99420.59;;;4.71;100.00
43683;BME280;29285;52.128;21.060;2023-02-18T18:08:00;99420.96;;;4.67;100.00
43683;BME280;29285;52.128;21.060;2023-02-18T18:13:03;99420.82;;;4.61;100.00
43683;BME280;29285;52.128;21.060;2023-02-18T18:18:04;99405.34;;;4.65;100.00
43683;BME280;29285;52.128;21.060;2023-02-18T18:23:06;99406.74;;;4.59;100.00
43683;BME280;29285;52.128;21.060;2023-02-18T18:28:08;99410.03;;;4.56;100.00
43683;BME280;29285;52.128;21.060;2023-02-18T18:33:13;99411.60;;;4.51;100.00
43683;BME280;29285;52.128;21.060;2023-02-18T18:38:15;99407.37;;;4.40;100.00
43683;BME280;29285;52.128;21.060;2023-02-18T18:43:24;99406.89;;;4.34;100.00
43683;BME280;29285;52.128;21.060;2023-02-18T18:48:25;99403.45;;;4.35;100.00
43683;BME280;29285;52.128;21.060;2023-02-18T18:53:27;99411.02;;;4.33;100.00
43683;BME280;29285;52.128;21.060;2023-02-18T18:58:29;99411.54;;;4.32;100.00
43683;BME280;29285;52.128;21.060;2023-02-18T19:03:31;99403.80;;;4.34;100.00
43683;BME280;29285;52.128;21.060;2023-02-18T19:08:33;99411.52;;;4.34;100.00
43683;BME280;29285;52.128;21.060;2023-02-18T19:13:34;99416.16;;;4.35;100.00
43683;BME280;29285;52.128;21.060;2023-02-18T19:18:36;99419.12;;;4.27;100.00
43683;BME280;29285;52.128;21.060;2023-02-18T19:23:37;99431.71;;;4.12;100.00
43683;BME280;29285;52.128;21.060;2023-02-18T19:28:38;99452.16;;;4.11;100.00
43683;BME280;29285;52.128;21.060;2023-02-18T19:33:39;99457.13;;;4.12;100.00
43683;BME280;29285;52.128;21.060;2023-02-18T19:38:40;99460.23;;;4.06;100.00
43683;BME280;29285;52.128;21.060;2023-02-18T19:43:42;99451.14;;;4.04;100.00
43683;BME280;29285;52.128;21.060;2023-02-18T19:48:47;99453.90;;;4.02;100.00
43683;BME280;29285;52.128;21.060;2023-02-18T19:53:49;99466.09;;;4.02;100.00
43683;BME280;29285;52.128;21.060;2023-02-18T19:58:53;99476.57;;;3.96;100.00
43683;BME280;29285;52.128;21.060;2023-02-18T20:03:54;99493.08;;;3.88;100.00
43683;BME280;29285;52.128;21.060;2023-02-18T20:08:56;99493.59;;;3.85;100.00
43683;BME280;29285;52.128;21.060;2023-02-18T20:13:57;99503.70;;;3.89;100.00
43683;BME280;29285;52.128;21.060;2023-02-18T20:18:58;99511.26;;;3.92;100.00
43683;BME280;29285;52.128;21.060;2023-02-18T20:24:00;99513.46;;;3.95;100.00
43683;BME280;29285;52.128;21.060;2023-02-18T20:29:01;99521.55;;;3.92;100.00
43683;BME280;29285;52.128;21.060;2023-02-18T20:34:02;99526.86;;;3.91;100.00
43683;BME280;29285;52.128;21.060;2023-02-18T20:39:03;99538.02;;;3.90;100.00
43683;BME280;29285;52.128;21.060;2023-02-18T20:44:04;99555.87;;;3.93;100.00
43683;BME280;29285;52.128;21.060;2023-02-18T20:49:06;99570.30;;;3.90;100.00
43683;BME280;29285;52.128;21.060;2023-02-18T20:54:09;99568.92;;;3.88;100.00
43683;BME280;29285;52.128;21.060;2023-02-18T20:59:16;99567.89;;;3.87;100.00
43683;BME280;29285;52.128;21.060;2023-02-18T21:04:18;99575.10;;;3.89;100.00
43683;BME280;29285;52.128;21.060;2023-02-18T21:09:19;99584.71;;;3.90;100.00
43683;BME280;29285;52.128;21.060;2023-02-18T21:14:21;99583.50;;;3.93;100.00
43683;BME280;29285;52.128;21.060;2023-02-18T21:19:24;99584.54;;;4.00;100.00
43683;BME280;29285;52.128;21.060;2023-02-18T21:24:25;99590.70;;;4.06;100.00
43683;BME280;29285;52.128;21.060;2023-02-18T21:29:27;99592.77;;;4.04;100.00
43683;BME280;29285;52.128;21.060;2023-02-18T21:34:28;99601.52;;;4.02;100.00
43683;BME280;29285;52.128;21.060;2023-02-18T21:39:30;99604.09;;;4.04;100.00
43683;BME280;29285;52.128;21.060;2023-02-18T21:44:31;99625.39;;;4.11;100.00
43683;BME280;29285;52.128;21.060;2023-02-18T21:49:32;99634.99;;;4.11;100.00
43683;BME280;29285;52.128;21.060;2023-02-18T21:54:35;99641.00;;;4.09;100.00
43683;BME280;29285;52.128;21.060;2023-02-18T21:59:36;99645.11;;;4.11;100.00
43683;BME280;29285;52.128;21.060;2023-02-18T22:04:37;99652.51;;;4.06;100.00
43683;BME280;29285;52.128;21.060;2023-02-18T22:09:38;99666.40;;;4.00;100.00
43683;BME280;29285;52.128;21.060;2023-02-18T22:14:40;99678.77;;;3.94;100.00
43683;BME280;29285;52.128;21.060;2023-02-18T22:19:41;99690.25;;;3.86;100.00
43683;BME280;29285;52.128;21.060;2023-02-18T22:24:42;99686.82;;;3.78;100.00
43683;BME280;29285;52.128;21.060;2023-02-18T22:29:43;99699.66;;;3.69;100.00
43683;BME280;29285;52.128;21.060;2023-02-18T22:34:46;99703.08;;;3.65;100.00
43683;BME280;29285;52.128;21.060;2023-02-18T22:39:48;99705.98;;;3.60;100.00
43683;BME280;29285;52.128;21.060;2023-02-18T22:44:49;99705.81;;;3.54;100.00
43683;BME280;29285;52.128;21.060;2023-02-18T22:49:50;99715.55;;;3.43;100.00
43683;BME280;29285;52.128;21.060;2023-02-18T22:54:51;99727.88;;;3.35;100.00
43683;BME280;29285;52.128;21.060;2023-02-18T22:59:52;99728.56;;;3.34;100.00
43683;BME280;29285;52.128;21.060;2023-02-18T23:04:53;99734.37;;;3.31;100.00
43683;BME280;29285;52.128;21.060;2023-02-18T23:09:54;99731.45;;;3.31;100.00
43683;BME280;29285;52.128;21.060;2023-02-18T23:14:54;99739.01;;;3.32;100.00
43683;BME280;29285;52.128;21.060;2023-02-18T23:19:55;99748.08;;;3.29;100.00
43683;BME280;29285;52.128;21.060;2023-02-18T23:24:56;99752.20;;;3.28;100.00
43683;BME280;29285;52.128;21.060;2023-02-18T23:29:57;99759.56;;;3.27;100.00
43683;BME280;29285;52.128;21.060;2023-02-18T23:34:59;99769.31;;;3.25;100.00
43683;BME280;29285;52.128;21.060;2023-02-18T23:39:59;99766.21;;;3.22;100.00
43683;BME280;29285;52.128;21.060;2023-02-18T23:45:08;99774.79;;;3.23;100.00
43683;BME280;29285;52.128;21.060;2023-02-18T23:50:09;99781.64;;;3.20;100.00
43683;BME280;29285;52.128;21.060;2023-02-18T23:55:10;99784.19;;;3.14;100.00
